Time;durP1;ratioP1;P1;durP2;ratioP2;P2;SDS_P1;SDS_P2;PMS_P1;PMS_P2;Temp;Humidity;BMP_temperature;BMP_pressure;BME280_temperature;BME280_humidity;BME280_pressure;Samples;Min_cycle;Max_cycle;Signal;HPM_P1;HPM_P2
2021/04/02 00:01:16;;;;;;;3.77;2.30;;;;;;;;;;5055381;28;20268;-60
2021/04/02 00:03:42;;;;;;;2.80;2.10;;;;;;;;;;5054365;28;20177;-61
2021/04/02 00:06:09;;;;;;;3.77;2.50;;;;;;;;;;5060254;28;20193;-60
2021/04/02 00:08:36;;;;;;;4.40;2.07;;;;;;;;;;5033328;28;20188;-60
2021/04/02 00:11:06;;;;;;;2.90;2.13;;;;;;;;;;5050173;28;20180;-61
2021/04/02 00:13:35;;;;;;;3.70;2.23;;;;;;;;;;5053371;28;20273;-60
2021/04/02 00:16:02;;;;;;;2.50;2.27;;;;;;;;;;5052221;28;20187;-60
2021/04/02 00:18:28;;;;;;;3.93;2.20;;;;;;;;;;5067192;28;20259;-59
2021/04/02 00:20:54;;;;;;;3.93;2.80;;;;;;;;;;5058680;28;20256;-61
2021/04/02 00:23:21;;;;;;;3.27;2.00;;;;;;;;;;5067697;28;20180;-60
2021/04/02 00:25:47;;;;;;;4.13;2.30;;;;;;;;;;5030978;28;20188;-60
2021/04/02 00:28:13;;;;;;;2.83;2.17;;;;;;;;;;5034259;28;20199;-60
2021/04/02 00:30:41;;;;;;;2.70;2.33;;;;;;;;;;5057922;28;20632;-61
2021/04/02 00:33:07;;;;;;;2.93;1.90;;;;;;;;;;5050443;28;20193;-60
2021/04/02 00:35:33;;;;;;;3.23;2.43;;;;;;;;;;5070173;28;20703;-61
2021/04/02 00:37:59;;;;;;;3.13;2.53;;;;;;;;;;5066343;28;20212;-61
2021/04/02 00:40:28;;;;;;;4.10;2.87;;;;;;;;;;5050703;28;20290;-60
2021/04/02 00:42:54;;;;;;;3.83;2.30;;;;;;;;;;5050403;28;20231;-62
2021/04/02 00:45:21;;;;;;;2.60;2.07;;;;;;;;;;5063676;28;20256;-60
2021/04/02 00:47:48;;;;;;;2.20;2.00;;;;;;;;;;5063410;28;20177;-60
2021/04/02 00:50:17;;;;;;;3.80;2.50;;;;;;;;;;5050885;28;20227;-62
2021/04/02 00:52:43;;;;;;;3.23;2.47;;;;;;;;;;5053962;28;20237;-60
2021/04/02 00:55:10;;;;;;;3.23;2.27;;;;;;;;;;5054493;28;20212;-60
2021/04/02 00:57:36;;;;;;;5.90;2.60;;;;;;;;;;5055073;28;20185;-60
2021/04/02 01:00:02;;;;;;;3.83;2.50;;;;;;;;;;5058670;28;20231;-61
2021/04/02 01:02:28;;;;;;;3.47;2.50;;;;;;;;;;5064256;28;20616;-60
2021/04/02 01:04:54;;;;;;;2.83;2.50;;;;;;;;;;5059371;28;20203;-60
2021/04/02 01:07:20;;;;;;;3.07;2.50;;;;;;;;;;5049828;28;20184;-59
2021/04/02 01:09:46;;;;;;;4.67;2.50;;;;;;;;;;5049519;28;20173;-61
2021/04/02 01:12:13;;;;;;;3.23;2.00;;;;;;;;;;5052571;28;20593;-59
2021/04/02 01:14:39;;;;;;;2.37;1.90;;;;;;;;;;5059634;28;20259;-59
2021/04/02 01:17:06;;;;;;;4.43;2.30;;;;;;;;;;5063799;28;20230;-60
2021/04/02 01:19:36;;;;;;;4.00;2.57;;;;;;;;;;5066892;28;20179;-59
2021/04/02 01:22:05;;;;;;;5.50;2.60;;;;;;;;;;5053001;28;20194;-60
2021/04/02 01:24:43;;;;;;;2.50;2.17;;;;;;;;;;5046196;28;20337;-60
2021/04/02 01:27:27;;;;;;;2.83;1.90;;;;;;;;;;5056671;28;20189;-60
2021/04/02 01:29:57;;;;;;;2.97;2.30;;;;;;;;;;5060719;28;20246;-61
2021/04/02 01:32:25;;;;;;;3.13;2.43;;;;;;;;;;5067079;28;20181;-59
2021/04/02 01:34:53;;;;;;;2.47;2.27;;;;;;;;;;5066174;28;20674;-60
2021/04/02 01:37:41;;;;;;;2.53;2.33;;;;;;;;;;5059860;28;20185;-61
2021/04/02 01:40:09;;;;;;;2.50;2.17;;;;;;;;;;5054102;28;20177;-60
2021/04/02 01:42:36;;;;;;;4.53;2.43;;;;;;;;;;5053406;28;20173;-60
2021/04/02 01:45:03;;;;;;;2.23;2.03;;;;;;;;;;5054596;28;20561;-60
2021/04/02 01:47:31;;;;;;;2.57;2.37;;;;;;;;;;5060374;28;20176;-63
2021/04/02 01:49:58;;;;;;;4.40;2.00;;;;;;;;;;5072838;28;20200;-60
2021/04/02 01:52:24;;;;;;;4.00;3.60;;;;;;;;;;5065108;28;20250;-61
2021/04/02 01:54:51;;;;;;;3.83;2.47;;;;;;;;;;5053856;28;20529;-60
2021/04/02 01:57:18;;;;;;;3.67;3.00;;;;;;;;;;5053456;28;20189;-60
2021/04/02 01:59:45;;;;;;;4.73;2.40;;;;;;;;;;5061965;28;20596;-60
2021/04/02 02:02:12;;;;;;;2.83;2.40;;;;;;;;;;5035519;28;20619;-60
2021/04/02 02:04:39;;;;;;;2.57;2.10;;;;;;;;;;5063775;28;20176;-60
2021/04/02 02:07:06;;;;;;;2.97;2.30;;;;;;;;;;5070477;28;20602;-60
2021/04/02 02:09:34;;;;;;;3.53;2.50;;;;;;;;;;5070523;28;20298;-59
2021/04/02 02:12:02;;;;;;;3.20;2.43;;;;;;;;;;5056172;28;20531;-60
2021/04/02 02:14:30;;;;;;;3.03;2.53;;;;;;;;;;5072739;28;20655;-60
2021/04/02 02:16:58;;;;;;;3.03;2.47;;;;;;;;;;5040781;28;20185;-61
2021/04/02 02:19:26;;;;;;;5.10;2.27;;;;;;;;;;5061416;28;20236;-61
2021/04/02 02:21:53;;;;;;;3.53;2.43;;;;;;;;;;5052364;28;20177;-60
2021/04/02 02:24:19;;;;;;;2.37;2.03;;;;;;;;;;5053426;28;20694;-60
2021/04/02 02:26:46;;;;;;;4.17;2.53;;;;;;;;;;5051316;28;20189;-60
2021/04/02 02:29:12;;;;;;;3.50;2.27;;;;;;;;;;5053428;28;20177;-60
2021/04/02 02:31:39;;;;;;;3.53;2.40;;;;;;;;;;5052551;28;20534;-60
2021/04/02 02:34:05;;;;;;;2.90;2.20;;;;;;;;;;5051922;28;20204;-60
2021/04/02 02:36:32;;;;;;;3.87;2.20;;;;;;;;;;5052346;28;20628;-60
2021/04/02 02:38:59;;;;;;;4.80;2.67;;;;;;;;;;5064542;28;20173;-60
2021/04/02 02:41:26;;;;;;;2.27;1.87;;;;;;;;;;5051284;28;20223;-62
2021/04/02 02:43:53;;;;;;;3.30;2.40;;;;;;;;;;5065146;28;20173;-60
2021/04/02 02:46:19;;;;;;;3.60;2.57;;;;;;;;;;5040465;28;20703;-60
2021/04/02 02:48:46;;;;;;;3.07;2.00;;;;;;;;;;5056303;28;20267;-61
2021/04/02 02:51:13;;;;;;;4.80;2.53;;;;;;;;;;5055092;28;20667;-60
2021/04/02 02:53:40;;;;;;;5.63;2.20;;;;;;;;;;5058937;28;20287;-60
2021/04/02 02:56:07;;;;;;;4.10;2.40;;;;;;;;;;5050864;28;20236;-61
2021/04/02 02:58:33;;;;;;;2.50;2.30;;;;;;;;;;5055215;28;20636;-59
2021/04/02 03:01:00;;;;;;;5.77;2.50;;;;;;;;;;5058215;28;20235;-59
2021/04/02 03:03:26;;;;;;;3.53;2.43;;;;;;;;;;5071813;28;20187;-60
2021/04/02 03:05:53;;;;;;;2.50;2.30;;;;;;;;;;5071375;28;20226;-60
2021/04/02 03:08:20;;;;;;;3.90;2.80;;;;;;;;;;5056309;28;20255;-60
2021/04/02 03:10:46;;;;;;;4.10;2.40;;;;;;;;;;5051681;28;20667;-60
2021/04/02 03:13:15;;;;;;;3.60;2.60;;;;;;;;;;5053475;28;20648;-60
2021/04/02 03:15:41;;;;;;;2.50;2.20;;;;;;;;;;5061631;28;20613;-59
2021/04/02 03:18:08;;;;;;;3.67;2.20;;;;;;;;;;5051938;28;20177;-61
2021/04/02 03:20:38;;;;;;;4.90;2.70;;;;;;;;;;5051905;28;20279;-60
2021/04/02 03:23:09;;;;;;;4.60;2.30;;;;;;;;;;5051208;28;20177;-60
2021/04/02 03:25:36;;;;;;;3.50;2.30;;;;;;;;;;5052766;28;20628;-60
2021/04/02 03:28:03;;;;;;;3.00;2.50;;;;;;;;;;5063250;28;20230;-60
2021/04/02 03:30:30;;;;;;;2.97;2.13;;;;;;;;;;5060837;28;20178;-60
2021/04/02 03:33:19;;;;;;;3.97;2.17;;;;;;;;;;5051642;28;20177;-61
2021/04/02 03:35:46;;;;;;;2.97;2.30;;;;;;;;;;5049637;28;20639;-60
2021/04/02 03:38:13;;;;;;;2.50;2.30;;;;;;;;;;5055876;28;20169;-60
2021/04/02 03:40:40;;;;;;;2.67;2.03;;;;;;;;;;5061797;28;20215;-60
2021/04/02 03:43:06;;;;;;;3.90;2.27;;;;;;;;;;5050944;28;20216;-63
2021/04/02 03:45:33;;;;;;;3.70;2.10;;;;;;;;;;5052453;28;20177;-60
2021/04/02 03:48:01;;;;;;;2.93;2.50;;;;;;;;;;5050565;28;20654;-60
2021/04/02 03:50:30;;;;;;;4.57;2.17;;;;;;;;;;5052000;28;20232;-60
2021/04/02 03:53:10;;;;;;;2.47;2.00;;;;;;;;;;5035888;28;20306;-60
2021/04/02 03:55:38;;;;;;;4.13;2.30;;;;;;;;;;5050051;28;20181;-60
2021/04/02 03:58:05;;;;;;;3.77;2.33;;;;;;;;;;5050434;28;20192;-60
2021/04/02 04:00:34;;;;;;;3.88;2.20;;;;;;;;;;5068959;28;20426;-60
2021/04/02 04:03:01;;;;;;;3.07;1.90;;;;;;;;;;5070615;28;20639;-60
2021/04/02 04:05:28;;;;;;;4.27;1.90;;;;;;;;;;5052519;28;20181;-60
2021/04/02 04:07:55;;;;;;;7.50;2.33;;;;;;;;;;5052260;28;20216;-60
2021/04/02 04:10:21;;;;;;;2.70;2.00;;;;;;;;;;5054571;28;20251;-60
2021/04/02 04:12:53;;;;;;;3.87;2.13;;;;;;;;;;5050548;28;20260;-60
2021/04/02 04:15:19;;;;;;;4.70;2.60;;;;;;;;;;5068559;28;20172;-60
2021/04/02 04:17:47;;;;;;;3.77;2.40;;;;;;;;;;5050577;28;20177;-60
2021/04/02 04:20:16;;;;;;;2.93;2.10;;;;;;;;;;5051926;28;20259;-59
2021/04/02 04:22:43;;;;;;;3.67;2.00;;;;;;;;;;5051798;28;20189;-60
2021/04/02 04:25:10;;;;;;;4.97;2.50;;;;;;;;;;5055120;28;20880;-60
2021/04/02 04:27:38;;;;;;;2.90;2.13;;;;;;;;;;5050437;28;20234;-61
2021/04/02 04:30:05;;;;;;;3.40;2.20;;;;;;;;;;5064881;28;20177;-60
2021/04/02 04:32:32;;;;;;;3.07;2.50;;;;;;;;;;5032293;28;20295;-60
2021/04/02 04:34:58;;;;;;;3.47;2.27;;;;;;;;;;5064843;28;20231;-60
2021/04/02 04:37:25;;;;;;;3.67;2.40;;;;;;;;;;5067460;28;20192;-59
2021/04/02 04:39:51;;;;;;;4.33;2.30;;;;;;;;;;5054684;28;20181;-60
2021/04/02 04:42:19;;;;;;;5.17;2.33;;;;;;;;;;5052698;28;20362;-59
2021/04/02 04:44:47;;;;;;;3.77;2.40;;;;;;;;;;5055566;28;20181;-59
2021/04/02 04:47:13;;;;;;;3.83;2.50;;;;;;;;;;5066250;28;20184;-60
2021/04/02 04:49:39;;;;;;;3.40;2.37;;;;;;;;;;5051201;28;20208;-59
2021/04/02 04:52:08;;;;;;;2.50;2.30;;;;;;;;;;5054876;28;20602;-60
2021/04/02 04:54:34;;;;;;;5.20;2.47;;;;;;;;;;5056797;28;20675;-59
2021/04/02 04:57:01;;;;;;;3.70;2.40;;;;;;;;;;5057639;28;20171;-59
2021/04/02 04:59:29;;;;;;;3.07;2.50;;;;;;;;;;5065507;28;20180;-62
2021/04/02 05:01:55;;;;;;;5.57;3.10;;;;;;;;;;5057002;28;20177;-59
2021/04/02 05:04:22;;;;;;;3.17;2.40;;;;;;;;;;5046605;28;20740;-61
2021/04/02 05:06:51;;;;;;;3.63;2.60;;;;;;;;;;5062228;28;20192;-59
2021/04/02 05:09:18;;;;;;;4.20;2.93;;;;;;;;;;5056575;28;20191;-60
2021/04/02 05:11:45;;;;;;;4.20;3.00;;;;;;;;;;5054806;28;20183;-60
2021/04/02 05:14:13;;;;;;;3.33;2.67;;;;;;;;;;5060813;28;20188;-60
2021/04/02 05:16:40;;;;;;;5.37;3.10;;;;;;;;;;5054435;28;20248;-60
2021/04/02 05:19:06;;;;;;;7.20;2.90;;;;;;;;;;5044605;28;20629;-60
2021/04/02 05:21:32;;;;;;;4.13;2.60;;;;;;;;;;5073949;28;20215;-60
2021/04/02 05:23:58;;;;;;;9.33;2.87;;;;;;;;;;5053231;28;20272;-60
2021/04/02 05:26:24;;;;;;;4.83;2.70;;;;;;;;;;5065454;28;20635;-60
2021/04/02 05:28:50;;;;;;;4.77;3.00;;;;;;;;;;5041216;28;20180;-59
2021/04/02 05:31:17;;;;;;;4.83;3.43;;;;;;;;;;5056000;28;20180;-59
2021/04/02 05:33:43;;;;;;;6.30;3.83;;;;;;;;;;5054931;28;20212;-60
2021/04/02 05:36:10;;;;;;;5.30;3.80;;;;;;;;;;5036619;28;20233;-59
2021/04/02 05:38:36;;;;;;;7.03;4.70;;;;;;;;;;5054023;28;20652;-59
2021/04/02 05:41:09;;;;;;;7.27;4.10;;;;;;;;;;5053284;28;20341;-59
2021/04/02 05:43:42;;;;;;;10.90;3.93;;;;;;;;;;5056662;28;20173;-60
2021/04/02 05:46:10;;;;;;;9.53;4.30;;;;;;;;;;5071079;28;20196;-59
2021/04/02 05:48:36;;;;;;;6.93;5.00;;;;;;;;;;5053502;28;20238;-59
2021/04/02 05:51:03;;;;;;;8.83;5.10;;;;;;;;;;5067129;28;20356;-60
2021/04/02 05:53:29;;;;;;;5.07;4.37;;;;;;;;;;5066646;28;20610;-60
2021/04/02 05:55:56;;;;;;;7.47;4.87;;;;;;;;;;5059256;28;20172;-60
2021/04/02 05:58:22;;;;;;;7.87;5.20;;;;;;;;;;5069619;28;20176;-60
2021/04/02 06:00:48;;;;;;;10.80;5.73;;;;;;;;;;5065090;28;20208;-60
2021/04/02 06:03:15;;;;;;;10.90;5.73;;;;;;;;;;5053205;28;20209;-59
2021/04/02 06:05:41;;;;;;;10.80;5.80;;;;;;;;;;5068257;28;20184;-59
2021/04/02 06:08:08;;;;;;;9.33;6.27;;;;;;;;;;5036514;28;20189;-62
2021/04/02 06:10:34;;;;;;;9.03;6.10;;;;;;;;;;5052707;28;20181;-60
2021/04/02 06:13:00;;;;;;;8.47;7.00;;;;;;;;;;5051979;28;20179;-59
2021/04/02 06:15:26;;;;;;;13.47;8.03;;;;;;;;;;5047724;28;20181;-60
2021/04/02 06:18:01;;;;;;;12.83;7.80;;;;;;;;;;5053459;28;20231;-59
2021/04/02 06:20:28;;;;;;;11.40;8.47;;;;;;;;;;5072156;28;20180;-60
2021/04/02 06:23:07;;;;;;;13.60;9.17;;;;;;;;;;5068870;28;20235;-60
2021/04/02 06:25:33;;;;;;;12.60;9.07;;;;;;;;;;5058107;28;20813;-63
2021/04/02 06:27:59;;;;;;;14.23;10.50;;;;;;;;;;5034723;28;20177;-60
2021/04/02 06:30:28;;;;;;;16.33;10.83;;;;;;;;;;5035550;28;20632;-59
2021/04/02 06:32:55;;;;;;;15.60;11.30;;;;;;;;;;5054117;28;20177;-59
2021/04/02 06:35:23;;;;;;;16.13;12.10;;;;;;;;;;5067664;28;20211;-59
2021/04/02 06:37:56;;;;;;;15.07;11.87;;;;;;;;;;5054971;28;20177;-60
2021/04/02 06:40:23;;;;;;;16.20;13.07;;;;;;;;;;5058130;28;20561;-59
2021/04/02 06:42:49;;;;;;;17.07;14.23;;;;;;;;;;5039000;28;20173;-60
2021/04/02 06:45:16;;;;;;;18.77;14.70;;;;;;;;;;5065633;28;20192;-60
2021/04/02 06:47:43;;;;;;;19.53;15.33;;;;;;;;;;5070029;28;20326;-59
2021/04/02 06:50:27;;;;;;;19.90;15.60;;;;;;;;;;5049757;28;20212;-60
2021/04/02 06:52:57;;;;;;;21.23;15.00;;;;;;;;;;5054678;28;20176;-62
2021/04/02 06:55:24;;;;;;;19.37;15.07;;;;;;;;;;5067890;28;20819;-61
2021/04/02 06:57:50;;;;;;;20.60;15.93;;;;;;;;;;5050662;28;20615;-59
2021/04/02 07:00:20;;;;;;;21.67;15.93;;;;;;;;;;5066035;28;20518;-60
2021/04/02 07:02:46;;;;;;;21.90;14.85;;;;;;;;;;5043233;28;20449;-60
2021/04/02 07:05:15;;;;;;;20.70;15.50;;;;;;;;;;5065162;28;20176;-60
2021/04/02 07:07:41;;;;;;;22.43;15.73;;;;;;;;;;5056437;28;20178;-59
2021/04/02 07:10:09;;;;;;;20.07;13.97;;;;;;;;;;5061387;28;20172;-59
2021/04/02 07:12:36;;;;;;;20.13;15.13;;;;;;;;;;5085378;28;20191;-59
2021/04/02 07:15:02;;;;;;;20.67;16.13;;;;;;;;;;5072066;28;20200;-59
2021/04/02 07:17:28;;;;;;;30.23;17.50;;;;;;;;;;5052548;28;20629;-61
2021/04/02 07:19:55;;;;;;;26.90;17.43;;;;;;;;;;5060937;28;20199;-59
2021/04/02 07:22:22;;;;;;;24.47;19.67;;;;;;;;;;5057719;28;20168;-59
2021/04/02 07:24:48;;;;;;;26.63;17.57;;;;;;;;;;5063052;28;20245;-61
2021/04/02 07:27:14;;;;;;;24.80;17.27;;;;;;;;;;5055685;28;20184;-59
2021/04/02 07:29:40;;;;;;;21.87;17.57;;;;;;;;;;5069722;28;20169;-59
2021/04/02 07:32:07;;;;;;;24.37;17.00;;;;;;;;;;5070514;28;20193;-59
2021/04/02 07:34:33;;;;;;;23.70;17.07;;;;;;;;;;5051705;28;20204;-59
2021/04/02 07:37:00;;;;;;;22.50;16.03;;;;;;;;;;5074716;28;20181;-60
2021/04/02 07:39:30;;;;;;;19.73;16.27;;;;;;;;;;5056147;28;20177;-59
2021/04/02 07:41:56;;;;;;;24.10;17.90;;;;;;;;;;5054033;28;20308;-59
2021/04/02 07:44:22;;;;;;;25.23;17.87;;;;;;;;;;5057605;28;20177;-59
2021/04/02 07:47:12;;;;;;;22.83;16.27;;;;;;;;;;5037464;28;20181;-59
2021/04/02 07:49:41;;;;;;;22.17;15.90;;;;;;;;;;5047824;28;20239;-59
2021/04/02 07:52:08;;;;;;;18.13;14.50;;;;;;;;;;5077764;28;20548;-59
2021/04/02 07:54:40;;;;;;;15.33;13.00;;;;;;;;;;5065518;28;20634;-60
2021/04/02 07:57:14;;;;;;;19.07;12.50;;;;;;;;;;5058115;28;20247;-59
2021/04/02 07:59:43;;;;;;;16.47;11.70;;;;;;;;;;5059270;28;20173;-60
2021/04/02 08:02:10;;;;;;;23.43;12.90;;;;;;;;;;5079795;28;20171;-61
2021/04/02 08:04:36;;;;;;;13.03;11.63;;;;;;;;;;5058420;28;20177;-59
2021/04/02 08:07:02;;;;;;;15.53;12.30;;;;;;;;;;5058168;28;20199;-59
2021/04/02 08:09:28;;;;;;;21.53;12.90;;;;;;;;;;5063948;28;20180;-60
2021/04/02 08:11:57;;;;;;;16.63;13.40;;;;;;;;;;5084222;28;20818;-61
2021/04/02 08:14:46;;;;;;;17.43;12.60;;;;;;;;;;5043408;28;20204;-59
2021/04/02 08:17:13;;;;;;;18.97;15.53;;;;;;;;;;5046624;28;20217;-59
2021/04/02 08:19:41;;;;;;;20.40;16.83;;;;;;;;;;5057529;28;20192;-59
2021/04/02 08:22:09;;;;;;;23.30;19.13;;;;;;;;;;5047814;28;20180;-60
2021/04/02 08:24:36;;;;;;;22.53;19.10;;;;;;;;;;5070707;28;20185;-59
2021/04/02 08:27:03;;;;;;;23.67;19.93;;;;;;;;;;5059699;28;20184;-59
2021/04/02 08:29:30;;;;;;;23.90;18.87;;;;;;;;;;5040556;28;20638;-59
2021/04/02 08:32:00;;;;;;;23.90;19.77;;;;;;;;;;5070619;28;20165;-60
2021/04/02 08:34:30;;;;;;;24.33;19.87;;;;;;;;;;5068871;28;20663;-59
2021/04/02 08:36:57;;;;;;;22.63;19.10;;;;;;;;;;5061344;28;20185;-59
2021/04/02 08:39:24;;;;;;;21.23;18.97;;;;;;;;;;5061942;28;20677;-59
2021/04/02 08:41:51;;;;;;;24.80;17.83;;;;;;;;;;5062594;28;20687;-60
2021/04/02 08:44:17;;;;;;;20.63;17.00;;;;;;;;;;5059230;28;20187;-59
2021/04/02 08:46:44;;;;;;;23.43;15.70;;;;;;;;;;5065649;28;20180;-59
2021/04/02 08:49:12;;;;;;;18.90;14.67;;;;;;;;;;5076972;28;20292;-59
2021/04/02 08:51:38;;;;;;;17.10;14.80;;;;;;;;;;5050702;28;20510;-62
2021/04/02 08:54:05;;;;;;;20.13;15.30;;;;;;;;;;5065106;28;20297;-62
2021/04/02 08:56:32;;;;;;;20.23;16.83;;;;;;;;;;5048594;28;20169;-59
2021/04/02 08:58:59;;;;;;;24.47;17.30;;;;;;;;;;5056006;28;20341;-59
2021/04/02 09:01:25;;;;;;;21.93;17.03;;;;;;;;;;5068499;28;20184;-60
2021/04/02 09:03:52;;;;;;;23.60;18.97;;;;;;;;;;5050342;28;20187;-59
2021/04/02 09:06:18;;;;;;;23.43;17.70;;;;;;;;;;5056781;28;20185;-59
2021/04/02 09:08:44;;;;;;;22.00;15.90;;;;;;;;;;5032945;28;20436;-60
2021/04/02 09:11:12;;;;;;;21.27;17.40;;;;;;;;;;5014529;28;20180;-59
2021/04/02 09:13:39;;;;;;;18.33;13.70;;;;;;;;;;5065139;28;20208;-60
2021/04/02 09:16:14;;;;;;;15.00;13.30;;;;;;;;;;5071636;28;20176;-60
2021/04/02 09:18:46;;;;;;;20.57;14.47;;;;;;;;;;5060297;28;20182;-60
2021/04/02 09:21:12;;;;;;;17.70;13.10;;;;;;;;;;5076628;28;20176;-61
2021/04/02 09:23:39;;;;;;;15.33;11.53;;;;;;;;;;5078852;28;20181;-59
2021/04/02 09:26:07;;;;;;;16.27;9.73;;;;;;;;;;5055676;28;20205;-59
2021/04/02 09:28:35;;;;;;;12.27;7.57;;;;;;;;;;5071465;28;20271;-59
2021/04/02 09:31:14;;;;;;;8.33;6.83;;;;;;;;;;5068250;28;20659;-59
2021/04/02 09:33:41;;;;;;;9.97;5.70;;;;;;;;;;5058083;28;20199;-60
2021/04/02 09:36:08;;;;;;;8.97;6.03;;;;;;;;;;5086965;28;20540;-60
2021/04/02 09:38:34;;;;;;;7.90;4.63;;;;;;;;;;5076377;28;20643;-59
2021/04/02 09:41:00;;;;;;;6.83;4.67;;;;;;;;;;5070451;28;20690;-61
2021/04/02 09:43:26;;;;;;;6.30;4.60;;;;;;;;;;5071230;28;20173;-60
2021/04/02 09:45:52;;;;;;;9.17;5.00;;;;;;;;;;5070565;28;20580;-60
2021/04/02 09:48:19;;;;;;;6.93;5.23;;;;;;;;;;5053843;28;20172;-59
2021/04/02 09:50:45;;;;;;;8.57;5.23;;;;;;;;;;5068221;28;20232;-62
2021/04/02 09:53:12;;;;;;;6.20;5.50;;;;;;;;;;5067095;28;20692;-59
2021/04/02 09:55:38;;;;;;;7.80;5.13;;;;;;;;;;5078483;28;20185;-60
2021/04/02 09:58:04;;;;;;;7.83;4.50;;;;;;;;;;5071255;28;20244;-59
2021/04/02 10:00:31;;;;;;;9.93;5.30;;;;;;;;;;5082959;28;20259;-59
2021/04/02 10:02:57;;;;;;;8.37;4.83;;;;;;;;;;5071054;28;20169;-59
2021/04/02 10:05:23;;;;;;;5.43;4.43;;;;;;;;;;5069350;28;20197;-60
2021/04/02 10:07:49;;;;;;;7.30;5.50;;;;;;;;;;5066669;28;20189;-60
2021/04/02 10:10:16;;;;;;;10.23;5.43;;;;;;;;;;5058678;28;20185;-60
2021/04/02 10:12:42;;;;;;;7.40;5.53;;;;;;;;;;5068277;28;20196;-59
2021/04/02 10:15:08;;;;;;;8.47;5.70;;;;;;;;;;5067189;28;20521;-61
2021/04/02 10:17:34;;;;;;;7.67;5.60;;;;;;;;;;5043449;28;20185;-59
2021/04/02 10:20:00;;;;;;;8.27;5.90;;;;;;;;;;5058351;28;20616;-59
2021/04/02 10:22:26;;;;;;;6.67;5.93;;;;;;;;;;5055000;28;20636;-59
2021/04/02 10:24:52;;;;;;;8.67;6.30;;;;;;;;;;5049083;28;20176;-60
2021/04/02 10:27:18;;;;;;;8.27;7.00;;;;;;;;;;5062095;28;20219;-59
2021/04/02 10:29:44;;;;;;;7.27;6.20;;;;;;;;;;5044085;28;20172;-59
2021/04/02 10:32:10;;;;;;;10.93;6.70;;;;;;;;;;5065527;28;20177;-60
2021/04/02 10:34:36;;;;;;;8.60;6.50;;;;;;;;;;5064088;28;20201;-60
2021/04/02 10:37:02;;;;;;;11.03;6.50;;;;;;;;;;5053969;28;20184;-60
2021/04/02 10:39:28;;;;;;;10.70;7.20;;;;;;;;;;5069564;28;20185;-59
2021/04/02 10:41:54;;;;;;;21.73;17.60;;;;;;;;;;5052627;28;20682;-59
2021/04/02 10:44:20;;;;;;;22.10;18.07;;;;;;;;;;5054173;28;20226;-59
2021/04/02 10:46:46;;;;;;;22.07;13.93;;;;;;;;;;5071824;28;20761;-60
2021/04/02 10:49:12;;;;;;;18.80;14.27;;;;;;;;;;5064422;28;20197;-60
2021/04/02 10:51:38;;;;;;;19.30;14.73;;;;;;;;;;5070888;28;20175;-60
2021/04/02 10:54:04;;;;;;;25.50;20.37;;;;;;;;;;5049231;28;20224;-59
2021/04/02 10:56:31;;;;;;;25.20;21.70;;;;;;;;;;5057861;28;20168;-60
2021/04/02 10:58:58;;;;;;;28.83;24.23;;;;;;;;;;5068828;28;20526;-60
2021/04/02 11:01:24;;;;;;;26.23;21.63;;;;;;;;;;5060425;28;20579;-62
2021/04/02 11:03:50;;;;;;;20.30;15.53;;;;;;;;;;5067598;28;20197;-60
2021/04/02 11:06:16;;;;;;;21.60;17.47;;;;;;;;;;5063480;28;20270;-61
2021/04/02 11:08:42;;;;;;;19.63;15.23;;;;;;;;;;5038923;28;20180;-59
2021/04/02 11:11:08;;;;;;;19.77;17.27;;;;;;;;;;5071896;28;20172;-60
2021/04/02 11:13:34;;;;;;;19.97;17.90;;;;;;;;;;5068232;28;20204;-59
2021/04/02 11:16:00;;;;;;;19.83;16.20;;;;;;;;;;5071880;28;20184;-59
2021/04/02 11:18:26;;;;;;;19.77;14.57;;;;;;;;;;5071015;28;20888;-63
2021/04/02 11:20:52;;;;;;;24.13;14.13;;;;;;;;;;5070346;28;20630;-59
2021/04/02 11:23:21;;;;;;;17.63;13.90;;;;;;;;;;5068656;28;20530;-60
2021/04/02 11:25:47;;;;;;;25.80;20.52;;;;;;;;;;5036333;28;20408;-59
2021/04/02 11:28:14;;;;;;;22.57;19.07;;;;;;;;;;5058331;28;20171;-60
2021/04/02 11:30:40;;;;;;;21.50;19.03;;;;;;;;;;5055150;28;20208;-60
2021/04/02 11:33:06;;;;;;;19.03;15.63;;;;;;;;;;5051266;28;20219;-60
2021/04/02 11:35:33;;;;;;;20.57;15.00;;;;;;;;;;5063950;28;20200;-60
2021/04/02 11:37:59;;;;;;;13.70;11.63;;;;;;;;;;5063485;28;20196;-61
2021/04/02 11:40:26;;;;;;;18.43;9.47;;;;;;;;;;5050370;28;20250;-60
2021/04/02 11:42:52;;;;;;;12.00;7.33;;;;;;;;;;5052632;28;20173;-60
2021/04/02 11:45:18;;;;;;;9.67;7.40;;;;;;;;;;5075366;28;20709;-60
2021/04/02 11:47:44;;;;;;;15.90;6.63;;;;;;;;;;5066909;28;20224;-60
2021/04/02 11:50:10;;;;;;;12.60;6.80;;;;;;;;;;5066097;28;20296;-60
2021/04/02 11:52:37;;;;;;;8.23;5.37;;;;;;;;;;5071229;28;20975;-62
2021/04/02 11:55:04;;;;;;;8.73;5.80;;;;;;;;;;5061720;28;20281;-60
2021/04/02 11:57:30;;;;;;;10.77;6.13;;;;;;;;;;5033381;28;20492;-60
2021/04/02 11:59:56;;;;;;;8.87;6.53;;;;;;;;;;5047506;28;20184;-60
2021/04/02 12:02:22;;;;;;;13.83;6.73;;;;;;;;;;5053167;28;20181;-60
2021/04/02 12:04:48;;;;;;;8.73;4.63;;;;;;;;;;5055537;28;20184;-59
2021/04/02 12:07:14;;;;;;;9.63;5.03;;;;;;;;;;5051210;28;20507;-59
2021/04/02 12:09:40;;;;;;;8.27;5.17;;;;;;;;;;5053197;28;20243;-60
2021/04/02 12:12:07;;;;;;;8.13;3.77;;;;;;;;;;5050300;28;20534;-59
2021/04/02 12:14:33;;;;;;;6.57;3.60;;;;;;;;;;5063620;28;20211;-59
2021/04/02 12:16:59;;;;;;;6.77;3.70;;;;;;;;;;5053715;28;20168;-59
2021/04/02 12:19:25;;;;;;;5.77;3.10;;;;;;;;;;5061029;28;20180;-59
2021/04/02 12:21:51;;;;;;;9.13;4.10;;;;;;;;;;5060100;28;20184;-59
2021/04/02 12:24:17;;;;;;;6.67;4.27;;;;;;;;;;5059661;28;20188;-59
2021/04/02 12:26:43;;;;;;;6.87;4.63;;;;;;;;;;5060476;28;20189;-61
2021/04/02 12:29:09;;;;;;;7.50;4.50;;;;;;;;;;5067678;28;20180;-60
2021/04/02 12:31:35;;;;;;;4.97;4.00;;;;;;;;;;5070102;28;20181;-60
2021/04/02 12:34:02;;;;;;;5.33;4.57;;;;;;;;;;5059685;28;20504;-60
2021/04/02 12:36:28;;;;;;;7.40;4.23;;;;;;;;;;5066306;28;20271;-60
2021/04/02 12:38:54;;;;;;;7.87;4.70;;;;;;;;;;5061011;28;20259;-60
2021/04/02 12:41:20;;;;;;;7.43;4.17;;;;;;;;;;5064866;28;20227;-61
2021/04/02 12:43:46;;;;;;;7.63;5.47;;;;;;;;;;5066061;28;20619;-60
2021/04/02 12:46:12;;;;;;;8.37;5.97;;;;;;;;;;5039151;28;20181;-63
2021/04/02 12:48:39;;;;;;;6.03;4.47;;;;;;;;;;5062575;28;20184;-60
2021/04/02 12:51:06;;;;;;;10.00;5.13;;;;;;;;;;5073506;28;20276;-60
2021/04/02 12:53:32;;;;;;;6.63;4.60;;;;;;;;;;5039032;28;20237;-61
2021/04/02 12:55:59;;;;;;;6.97;4.50;;;;;;;;;;5052264;28;20181;-60
2021/04/02 12:58:25;;;;;;;5.80;4.30;;;;;;;;;;5052336;28;20183;-62
2021/04/02 13:00:52;;;;;;;10.10;6.70;;;;;;;;;;5052391;28;20179;-60
2021/04/02 13:03:18;;;;;;;7.07;5.60;;;;;;;;;;5069903;28;20260;-61
2021/04/02 13:05:44;;;;;;;7.53;5.77;;;;;;;;;;5051422;28;20549;-60
2021/04/02 13:08:12;;;;;;;7.70;5.73;;;;;;;;;;5068072;28;20264;-61
2021/04/02 13:10:38;;;;;;;9.83;5.37;;;;;;;;;;5054172;28;20673;-62
2021/04/02 13:13:05;;;;;;;9.63;6.37;;;;;;;;;;5053133;28;20184;-60
2021/04/02 13:15:31;;;;;;;8.83;5.37;;;;;;;;;;5063569;28;20214;-60
2021/04/02 13:17:57;;;;;;;12.60;7.03;;;;;;;;;;5054575;28;20169;-60
2021/04/02 13:20:27;;;;;;;7.73;5.20;;;;;;;;;;5061419;28;20169;-60
2021/04/02 13:22:53;;;;;;;8.03;5.27;;;;;;;;;;5037936;28;20185;-60
2021/04/02 13:25:20;;;;;;;6.13;3.77;;;;;;;;;;5075311;28;20173;-59
2021/04/02 13:27:46;;;;;;;7.77;4.43;;;;;;;;;;5052544;28;20253;-61
2021/04/02 13:30:13;;;;;;;3.97;2.93;;;;;;;;;;5071191;28;20522;-60
2021/04/02 13:32:50;;;;;;;3.60;2.70;;;;;;;;;;5068558;28;20184;-59
2021/04/02 13:35:17;;;;;;;13.07;2.73;;;;;;;;;;5064618;28;20224;-59
2021/04/02 13:37:44;;;;;;;5.07;3.83;;;;;;;;;;5050014;28;20543;-60
2021/04/02 13:40:10;;;;;;;6.90;3.27;;;;;;;;;;5060375;28;20214;-59
2021/04/02 13:42:37;;;;;;;7.23;3.00;;;;;;;;;;5070838;28;20290;-59
2021/04/02 13:45:03;;;;;;;8.43;4.40;;;;;;;;;;5072733;28;20195;-60
2021/04/02 13:47:29;;;;;;;7.90;3.87;;;;;;;;;;5035903;28;20183;-60
2021/04/02 13:49:55;;;;;;;6.90;3.40;;;;;;;;;;5047558;28;20208;-59
2021/04/02 13:52:22;;;;;;;4.63;3.77;;;;;;;;;;5072258;28;20188;-59
2021/04/02 13:54:48;;;;;;;5.20;3.87;;;;;;;;;;5072470;28;20560;-60
2021/04/02 13:57:14;;;;;;;5.83;3.33;;;;;;;;;;5072957;28;20165;-60
2021/04/02 13:59:41;;;;;;;6.60;3.60;;;;;;;;;;5053001;28;20172;-59
2021/04/02 14:02:07;;;;;;;6.73;3.63;;;;;;;;;;5073461;28;20665;-59
2021/04/02 14:04:33;;;;;;;6.23;4.27;;;;;;;;;;5072107;28;20337;-59
2021/04/02 14:06:59;;;;;;;9.47;4.87;;;;;;;;;;5073217;28;20252;-59
2021/04/02 14:09:26;;;;;;;4.83;4.30;;;;;;;;;;5071998;28;20176;-59
2021/04/02 14:11:52;;;;;;;6.50;4.60;;;;;;;;;;5072161;28;20185;-59
2021/04/02 14:14:18;;;;;;;7.67;4.23;;;;;;;;;;5054702;28;20674;-60
2021/04/02 14:16:45;;;;;;;9.50;5.43;;;;;;;;;;5073090;28;20203;-59
2021/04/02 14:19:12;;;;;;;10.17;5.00;;;;;;;;;;5069524;28;20218;-62
2021/04/02 14:21:38;;;;;;;12.13;5.63;;;;;;;;;;5049525;28;20181;-60
2021/04/02 14:24:04;;;;;;;9.20;7.37;;;;;;;;;;5070366;28;20188;-59
2021/04/02 14:26:30;;;;;;;9.87;7.13;;;;;;;;;;5041361;28;20180;-60
2021/04/02 14:28:56;;;;;;;7.37;5.17;;;;;;;;;;5059509;28;20180;-60
2021/04/02 14:31:22;;;;;;;6.30;4.50;;;;;;;;;;5069226;28;20234;-60
2021/04/02 14:33:48;;;;;;;8.90;4.73;;;;;;;;;;5058069;28;20717;-62
2021/04/02 14:36:14;;;;;;;8.43;4.70;;;;;;;;;;5071918;28;20244;-60